createdAt,value
2023-02-06T00:02:04.735Z,1.66
2023-02-06T00:07:06.357Z,1.63
2023-02-06T00:12:07.951Z,1.58
2023-02-06T00:17:09.495Z,1.57
2023-02-06T00:22:13.557Z,1.57
2023-02-06T00:27:15.137Z,1.56
2023-02-06T00:32:16.707Z,1.57
2023-02-06T00:37:18.495Z,1.52
2023-02-06T00:42:20.139Z,1.48
2023-02-06T00:47:21.771Z,1.41
2023-02-06T00:52:23.330Z,1.37
2023-02-06T00:57:24.869Z,1.33
2023-02-06T01:02:26.879Z,1.32
2023-02-06T01:07:28.546Z,1.31
2023-02-06T01:12:30.136Z,1.27
2023-02-06T01:17:32.804Z,1.24
2023-02-06T01:22:35.358Z,1.11
2023-02-06T01:27:37.932Z,0.98
2023-02-06T01:32:40.816Z,0.81
2023-02-06T01:37:42.411Z,0.65
2023-02-06T01:42:44.132Z,0.56
2023-02-06T01:47:45.805Z,0.48
2023-02-06T01:52:47.833Z,0.44
2023-02-06T01:57:49.420Z,0.49
2023-02-06T02:02:51.114Z,0.52
2023-02-06T02:08:02.042Z,0.58
2023-02-06T02:13:03.617Z,0.68
2023-02-06T02:18:34.685Z,0.74
2023-02-06T02:23:42.462Z,0.79
2023-02-06T02:29:09.003Z,0.86
2023-02-06T02:34:28.989Z,0.89
2023-02-06T02:39:50.423Z,0.94
2023-02-06T02:45:04.376Z,0.95
2023-02-06T02:50:07.264Z,0.98
2023-02-06T02:55:22.583Z,1.02
2023-02-06T03:00:29.830Z,1.08
2023-02-06T03:05:36.645Z,1.15
2023-02-06T03:10:44.446Z,1.17
2023-02-06T03:16:11.739Z,1.21
2023-02-06T03:21:17.947Z,1.21
2023-02-06T03:26:24.774Z,1.19
2023-02-06T03:31:32.297Z,1.19
2023-02-06T03:36:34.294Z,1.20
2023-02-06T03:41:39.190Z,1.22
2023-02-06T03:46:43.637Z,1.22
2023-02-06T03:51:55.720Z,1.23
2023-02-06T03:57:01.048Z,1.22
2023-02-06T04:02:04.613Z,1.21
2023-02-06T04:07:14.745Z,1.19
2023-02-06T04:12:16.823Z,1.18
2023-02-06T04:17:36.873Z,1.17
2023-02-06T04:22:40.969Z,1.18
2023-02-06T04:27:42.563Z,1.21
2023-02-06T04:32:44.185Z,1.23
2023-02-06T04:37:48.097Z,1.22
2023-02-06T04:42:49.615Z,1.21
2023-02-06T04:47:51.207Z,1.19
2023-02-06T04:52:52.772Z,1.16
2023-02-06T04:57:54.303Z,1.10
2023-02-06T05:02:55.863Z,1.10
2023-02-06T05:07:57.444Z,1.07
2023-02-06T05:12:59.058Z,1.05
2023-02-06T05:18:00.579Z,1.02
2023-02-06T05:23:02.275Z,1.01
2023-02-06T05:28:06.679Z,1.01
2023-02-06T05:33:08.512Z,0.95
2023-02-06T05:38:10.065Z,0.94
2023-02-06T05:43:12.279Z,0.92
2023-02-06T05:48:13.847Z,0.94
2023-02-06T05:53:17.038Z,0.96
2023-02-06T05:58:18.903Z,0.96
2023-02-06T06:03:20.465Z,0.95
2023-02-06T06:08:22.463Z,0.99
2023-02-06T06:13:24.055Z,1.03
2023-02-06T06:18:26.676Z,1.07
2023-02-06T06:23:28.388Z,1.06
2023-02-06T06:28:30.072Z,1.06
2023-02-06T06:33:31.851Z,1.05
2023-02-06T06:38:33.684Z,1.04
2023-02-06T06:43:35.257Z,1.04
2023-02-06T06:48:38.456Z,0.98
2023-02-06T06:53:42.539Z,0.99
2023-02-06T06:58:44.194Z,1.02
2023-02-06T07:03:47.130Z,1.04
2023-02-06T07:08:49.489Z,1.10
2023-02-06T07:13:51.099Z,1.11
2023-02-06T07:18:52.692Z,1.11
2023-02-06T07:23:54.435Z,1.14
2023-02-06T07:28:56.141Z,1.16
2023-02-06T07:33:57.751Z,1.18
2023-02-06T07:38:59.501Z,1.22
2023-02-06T07:44:01.068Z,1.26
2023-02-06T07:49:02.785Z,1.32
2023-02-06T07:54:04.496Z,1.36
2023-02-06T07:59:06.225Z,1.38
2023-02-06T08:04:07.788Z,1.36
2023-02-06T08:09:13.553Z,1.29
2023-02-06T08:14:22.029Z,1.28
2023-02-06T08:19:23.856Z,1.32
2023-02-06T08:24:25.786Z,1.47
2023-02-06T08:29:27.383Z,1.64
2023-02-06T08:34:28.961Z,1.82
2023-02-06T08:39:30.708Z,2.06
2023-02-06T08:44:32.448Z,2.21
2023-02-06T08:49:34.023Z,2.26
2023-02-06T08:54:38.349Z,2.21
2023-02-06T08:59:41.583Z,2.31
2023-02-06T09:04:43.395Z,2.44
2023-02-06T09:09:45.102Z,2.37
2023-02-06T09:14:46.831Z,2.29
2023-02-06T09:19:48.521Z,2.27
2023-02-06T09:24:50.167Z,2.31
2023-02-06T09:29:51.781Z,2.32
2023-02-06T09:34:53.352Z,2.40
2023-02-06T09:39:55.070Z,2.46
2023-02-06T09:45:13.854Z,2.49
2023-02-06T09:50:53.077Z,2.74
2023-02-06T09:56:01.345Z,3.06
2023-02-06T10:01:21.837Z,3.33
2023-02-06T10:06:39.110Z,3.72
2023-02-06T10:11:53.138Z,3.84
2023-02-06T10:17:13.234Z,3.79
2023-02-06T10:22:21.202Z,3.88
2023-02-06T10:27:22.835Z,3.93
2023-02-06T10:32:27.913Z,3.99
2023-02-06T10:37:32.400Z,3.89
2023-02-06T10:42:37.074Z,3.84
2023-02-06T10:47:49.906Z,3.80
2023-02-06T10:52:53.435Z,3.78
2023-02-06T10:58:30.256Z,3.57
2023-02-06T11:03:33.209Z,3.49
2023-02-06T11:08:42.487Z,3.60
2023-02-06T11:13:45.895Z,3.51
2023-02-06T11:18:49.666Z,3.46
2023-02-06T11:24:09.576Z,3.46
2023-02-06T11:29:18.436Z,3.42
2023-02-06T11:34:33.586Z,3.45
2023-02-06T11:39:39.453Z,3.41
2023-02-06T11:44:43.576Z,3.51
2023-02-06T11:49:45.391Z,3.46
2023-02-06T11:54:54.709Z,3.49
2023-02-06T12:00:20.936Z,3.56
2023-02-06T12:05:28.327Z,3.42
2023-02-06T12:10:35.631Z,3.34
2023-02-06T12:15:50.292Z,3.38
2023-02-06T12:20:56.156Z,3.28
2023-02-06T12:26:01.960Z,3.14
2023-02-06T12:31:12.953Z,3.14
2023-02-06T12:36:20.853Z,3.26
2023-02-06T12:41:40.346Z,3.24
2023-02-06T12:46:44.971Z,3.21
2023-02-06T12:52:02.786Z,3.20
2023-02-06T12:57:12.648Z,3.31
2023-02-06T13:02:35.512Z,3.43
2023-02-06T13:07:48.988Z,3.55
2023-02-06T13:12:58.638Z,3.67
2023-02-06T13:18:00.250Z,3.65
2023-02-06T13:23:13.894Z,3.67
2023-02-06T13:28:27.563Z,3.68
2023-02-06T13:33:42.850Z,3.73
2023-02-06T13:38:44.560Z,3.72
2023-02-06T13:44:12.953Z,3.66
2023-02-06T13:49:35.909Z,3.55
2023-02-06T13:54:40.215Z,3.52
2023-02-06T13:59:47.353Z,3.52
2023-02-06T14:04:55.774Z,3.44
2023-02-06T14:10:19.654Z,3.36
2023-02-06T14:15:46.856Z,3.35
2023-02-06T14:21:13.165Z,3.38
2023-02-06T14:26:14.885Z,3.54
2023-02-06T14:31:25.320Z,3.56
2023-02-06T14:36:30.319Z,3.52
2023-02-06T14:41:33.176Z,3.51
2023-02-06T14:46:35.003Z,3.46
2023-02-06T14:51:39.330Z,3.37
2023-02-06T14:56:41.157Z,3.45
2023-02-06T15:01:46.886Z,3.50
2023-02-06T15:07:00.121Z,3.43
2023-02-06T15:12:25.055Z,3.41
2023-02-06T15:17:26.922Z,3.41
2023-02-06T15:22:30.639Z,3.38
2023-02-06T15:27:34.973Z,3.32
2023-02-06T15:32:39.510Z,3.34
2023-02-06T15:37:41.074Z,3.35
2023-02-06T15:42:43.038Z,3.15
2023-02-06T15:47:46.902Z,2.96
2023-02-06T15:52:48.571Z,2.88
2023-02-06T15:57:50.595Z,2.84
2023-02-06T16:02:55.723Z,2.78
2023-02-06T16:07:57.911Z,2.72
2023-02-06T16:13:01.630Z,2.66
2023-02-06T16:18:25.134Z,2.60
2023-02-06T16:23:29.993Z,2.54
2023-02-06T16:28:31.497Z,2.47
2023-02-06T16:33:42.302Z,2.30
2023-02-06T16:38:48.423Z,2.10
2023-02-06T16:43:56.801Z,1.96
2023-02-06T16:48:59.515Z,1.92
2023-02-06T16:54:01.095Z,1.95
2023-02-06T16:59:02.635Z,2.07
2023-02-06T17:04:04.242Z,2.12
2023-02-06T17:09:10.946Z,2.18
2023-02-06T17:14:12.486Z,2.27
2023-02-06T17:19:15.513Z,2.36
2023-02-06T17:24:17.080Z,2.38
2023-02-06T17:29:18.611Z,2.36
2023-02-06T17:34:20.173Z,2.41
2023-02-06T17:39:22.962Z,2.41
2023-02-06T17:44:24.493Z,2.36
2023-02-06T17:49:26.013Z,2.30
2023-02-06T17:54:27.636Z,2.33
2023-02-06T17:59:29.159Z,2.37
2023-02-06T18:04:30.671Z,2.30
2023-02-06T18:09:32.158Z,1.88
2023-02-06T18:14:35.380Z,1.71
2023-02-06T18:19:42.211Z,1.69
2023-02-06T18:24:44.222Z,1.73
2023-02-06T18:29:50.213Z,1.78
2023-02-06T18:34:52.227Z,1.82
2023-02-06T18:39:55.218Z,1.79
2023-02-06T18:44:56.751Z,1.58
2023-02-06T18:49:58.308Z,1.39
2023-02-06T18:54:59.890Z,1.45
2023-02-06T19:00:01.540Z,1.45
2023-02-06T19:05:03.784Z,1.47
2023-02-06T19:10:09.998Z,1.58
2023-02-06T19:15:12.842Z,1.63
2023-02-06T19:20:14.385Z,1.58
2023-02-06T19:25:16.000Z,1.47
2023-02-06T19:30:17.605Z,1.41
2023-02-06T19:35:20.493Z,1.39
2023-02-06T19:40:22.101Z,1.43
2023-02-06T19:45:23.674Z,1.41
2023-02-06T19:50:25.260Z,1.39
2023-02-06T19:55:26.862Z,1.34
2023-02-06T20:00:28.903Z,1.28
2023-02-06T20:05:33.257Z,1.34
2023-02-06T20:10:37.714Z,1.48
2023-02-06T20:15:39.504Z,1.57
2023-02-06T20:20:41.078Z,1.63
2023-02-06T20:25:42.593Z,1.69
2023-02-06T20:30:44.350Z,1.69
2023-02-06T20:35:45.951Z,1.59
2023-02-06T20:40:51.022Z,1.50
2023-02-06T20:45:52.561Z,1.42
2023-02-06T20:51:02.034Z,1.39
2023-02-06T20:56:03.914Z,1.42
2023-02-06T21:01:22.081Z,1.44
2023-02-06T21:06:23.685Z,1.30
2023-02-06T21:11:29.675Z,1.04
2023-02-06T21:16:32.452Z,0.86
2023-02-06T21:21:34.172Z,0.84
2023-02-06T21:26:36.828Z,1.04
2023-02-06T21:31:39.026Z,1.15
2023-02-06T21:36:41.779Z,1.12
2023-02-06T21:41:44.518Z,1.10
2023-02-06T21:46:46.314Z,0.98
2023-02-06T21:51:47.911Z,0.85
2023-02-06T21:56:49.475Z,0.72
2023-02-06T22:01:51.151Z,0.85
2023-02-06T22:06:52.675Z,0.95
2023-02-06T22:11:54.256Z,0.92
2023-02-06T22:16:55.879Z,0.92
2023-02-06T22:21:57.381Z,0.94
2023-02-06T22:26:58.928Z,0.93
2023-02-06T22:32:04.392Z,0.92
2023-02-06T22:37:05.942Z,0.65
2023-02-06T22:42:07.552Z,0.40
2023-02-06T22:47:09.088Z,0.25
2023-02-06T22:52:30.605Z,0.09
2023-02-06T22:57:33.501Z,-0.01
2023-02-06T23:02:35.339Z,-0.10
2023-02-06T23:07:37.168Z,-0.27
2023-02-06T23:12:38.704Z,-0.33
2023-02-06T23:17:40.269Z,-0.26
2023-02-06T23:22:41.791Z,-0.26
2023-02-06T23:27:43.299Z,-0.23
2023-02-06T23:32:44.988Z,-0.30
2023-02-06T23:37:46.487Z,-0.43
2023-02-06T23:42:48.026Z,-0.53
2023-02-06T23:47:50.920Z,-0.55
2023-02-06T23:52:52.525Z,-0.55
2023-02-06T23:57:54.480Z,-0.57
